sensor_id;sensor_type;location;lat;lon;timestamp;P1;durP1;ratioP1;P2;durP2;ratioP2
13683;SDS011;6914;53.552;9.908;2022-11-20T00:00:05;4.87;;;4.03;;
13683;SDS011;6914;53.552;9.908;2022-11-20T00:02:33;3.83;;;3.17;;
13683;SDS011;6914;53.552;9.908;2022-11-20T00:05:00;6.77;;;3.97;;
13683;SDS011;6914;53.552;9.908;2022-11-20T00:07:26;4.13;;;3.93;;
13683;SDS011;6914;53.552;9.908;2022-11-20T00:09:53;7.63;;;4.23;;
13683;SDS011;6914;53.552;9.908;2022-11-20T00:12:20;4.20;;;3.90;;
13683;SDS011;6914;53.552;9.908;2022-11-20T00:14:48;3.03;;;2.83;;
13683;SDS011;6914;53.552;9.908;2022-11-20T00:17:14;4.30;;;4.00;;
13683;SDS011;6914;53.552;9.908;2022-11-20T00:19:41;6.57;;;4.10;;
13683;SDS011;6914;53.552;9.908;2022-11-20T00:22:08;4.80;;;4.40;;
13683;SDS011;6914;53.552;9.908;2022-11-20T00:24:35;7.07;;;4.03;;
13683;SDS011;6914;53.552;9.908;2022-11-20T00:27:01;4.83;;;4.40;;
13683;SDS011;6914;53.552;9.908;2022-11-20T00:29:28;4.10;;;3.80;;
13683;SDS011;6914;53.552;9.908;2022-11-20T00:31:56;5.07;;;4.40;;
13683;SDS011;6914;53.552;9.908;2022-11-20T00:34:23;3.30;;;3.20;;
13683;SDS011;6914;53.552;9.908;2022-11-20T00:36:50;3.70;;;3.40;;
13683;SDS011;6914;53.552;9.908;2022-11-20T00:39:16;5.50;;;4.30;;
13683;SDS011;6914;53.552;9.908;2022-11-20T00:41:43;11.23;;;4.27;;
13683;SDS011;6914;53.552;9.908;2022-11-20T00:44:10;5.07;;;4.60;;
13683;SDS011;6914;53.552;9.908;2022-11-20T00:46:36;7.00;;;4.87;;
13683;SDS011;6914;53.552;9.908;2022-11-20T00:49:04;5.40;;;4.97;;
13683;SDS011;6914;53.552;9.908;2022-11-20T00:51:31;4.50;;;4.13;;
13683;SDS011;6914;53.552;9.908;2022-11-20T00:53:58;4.17;;;3.87;;
13683;SDS011;6914;53.552;9.908;2022-11-20T00:56:27;5.37;;;4.87;;
13683;SDS011;6914;53.552;9.908;2022-11-20T00:58:53;4.60;;;4.20;;
13683;SDS011;6914;53.552;9.908;2022-11-20T01:01:20;4.57;;;4.17;;
13683;SDS011;6914;53.552;9.908;2022-11-20T01:03:49;5.30;;;4.80;;
13683;SDS011;6914;53.552;9.908;2022-11-20T01:06:19;4.90;;;4.00;;
13683;SDS011;6914;53.552;9.908;2022-11-20T01:08:47;5.03;;;4.63;;
13683;SDS011;6914;53.552;9.908;2022-11-20T01:11:15;6.60;;;5.63;;
13683;SDS011;6914;53.552;9.908;2022-11-20T01:13:44;4.20;;;3.90;;
13683;SDS011;6914;53.552;9.908;2022-11-20T01:16:12;4.40;;;4.17;;
13683;SDS011;6914;53.552;9.908;2022-11-20T01:18:40;4.57;;;4.17;;
13683;SDS011;6914;53.552;9.908;2022-11-20T01:21:09;4.63;;;4.23;;
13683;SDS011;6914;53.552;9.908;2022-11-20T01:23:39;5.90;;;4.60;;
13683;SDS011;6914;53.552;9.908;2022-11-20T01:26:08;5.53;;;4.80;;
13683;SDS011;6914;53.552;9.908;2022-11-20T01:28:36;5.03;;;4.40;;
13683;SDS011;6914;53.552;9.908;2022-11-20T01:31:10;6.70;;;4.63;;
13683;SDS011;6914;53.552;9.908;2022-11-20T01:33:38;5.83;;;4.37;;
13683;SDS011;6914;53.552;9.908;2022-11-20T01:36:05;4.13;;;3.57;;
13683;SDS011;6914;53.552;9.908;2022-11-20T01:38:33;4.20;;;3.90;;
13683;SDS011;6914;53.552;9.908;2022-11-20T01:41:01;5.87;;;4.13;;
13683;SDS011;6914;53.552;9.908;2022-11-20T01:43:28;5.07;;;3.63;;
13683;SDS011;6914;53.552;9.908;2022-11-20T01:46:02;7.70;;;4.30;;
13683;SDS011;6914;53.552;9.908;2022-11-20T01:48:50;4.00;;;3.80;;
13683;SDS011;6914;53.552;9.908;2022-11-20T01:51:22;4.73;;;4.33;;
13683;SDS011;6914;53.552;9.908;2022-11-20T01:53:52;4.63;;;3.90;;
13683;SDS011;6914;53.552;9.908;2022-11-20T01:56:24;5.30;;;4.77;;
13683;SDS011;6914;53.552;9.908;2022-11-20T01:58:52;4.60;;;4.20;;
13683;SDS011;6914;53.552;9.908;2022-11-20T02:01:22;4.53;;;4.23;;
13683;SDS011;6914;53.552;9.908;2022-11-20T02:03:49;4.83;;;4.47;;
13683;SDS011;6914;53.552;9.908;2022-11-20T02:06:17;5.87;;;5.00;;
13683;SDS011;6914;53.552;9.908;2022-11-20T02:08:48;10.30;;;4.57;;
13683;SDS011;6914;53.552;9.908;2022-11-20T02:11:16;4.80;;;4.40;;
13683;SDS011;6914;53.552;9.908;2022-11-20T02:13:44;7.30;;;5.63;;
13683;SDS011;6914;53.552;9.908;2022-11-20T02:16:15;5.63;;;4.60;;
13683;SDS011;6914;53.552;9.908;2022-11-20T02:18:45;6.63;;;4.67;;
13683;SDS011;6914;53.552;9.908;2022-11-20T02:21:14;5.13;;;4.63;;
13683;SDS011;6914;53.552;9.908;2022-11-20T02:26:45;5.20;;;4.90;;
13683;SDS011;6914;53.552;9.908;2022-11-20T02:29:15;4.07;;;3.87;;
13683;SDS011;6914;53.552;9.908;2022-11-20T02:31:45;4.90;;;4.47;;
13683;SDS011;6914;53.552;9.908;2022-11-20T02:34:12;4.63;;;4.33;;
13683;SDS011;6914;53.552;9.908;2022-11-20T02:36:39;8.00;;;5.00;;
13683;SDS011;6914;53.552;9.908;2022-11-20T02:39:10;5.90;;;4.60;;
13683;SDS011;6914;53.552;9.908;2022-11-20T02:41:41;5.20;;;4.53;;
13683;SDS011;6914;53.552;9.908;2022-11-20T02:44:08;5.10;;;4.60;;
13683;SDS011;6914;53.552;9.908;2022-11-20T02:46:35;7.53;;;5.50;;
13683;SDS011;6914;53.552;9.908;2022-11-20T02:49:02;8.43;;;6.57;;
13683;SDS011;6914;53.552;9.908;2022-11-20T02:51:30;5.57;;;5.03;;
13683;SDS011;6914;53.552;9.908;2022-11-20T02:53:58;7.30;;;5.00;;
13683;SDS011;6914;53.552;9.908;2022-11-20T02:56:26;5.33;;;4.90;;
13683;SDS011;6914;53.552;9.908;2022-11-20T02:58:53;5.97;;;5.50;;
13683;SDS011;6914;53.552;9.908;2022-11-20T03:01:19;5.40;;;4.90;;
13683;SDS011;6914;53.552;9.908;2022-11-20T03:03:46;6.57;;;6.07;;
13683;SDS011;6914;53.552;9.908;2022-11-20T03:06:13;6.83;;;5.47;;
13683;SDS011;6914;53.552;9.908;2022-11-20T03:08:40;5.87;;;5.37;;
13683;SDS011;6914;53.552;9.908;2022-11-20T03:11:07;5.57;;;5.17;;
13683;SDS011;6914;53.552;9.908;2022-11-20T03:13:36;5.50;;;5.20;;
13683;SDS011;6914;53.552;9.908;2022-11-20T03:16:06;5.03;;;4.73;;
13683;SDS011;6914;53.552;9.908;2022-11-20T03:18:34;8.20;;;5.10;;
13683;SDS011;6914;53.552;9.908;2022-11-20T03:21:01;30.07;;;5.50;;
13683;SDS011;6914;53.552;9.908;2022-11-20T03:23:28;6.37;;;4.60;;
13683;SDS011;6914;53.552;9.908;2022-11-20T03:26:06;5.60;;;5.10;;
13683;SDS011;6914;53.552;9.908;2022-11-20T03:28:35;4.90;;;4.70;;
13683;SDS011;6914;53.552;9.908;2022-11-20T03:31:04;4.97;;;4.63;;
13683;SDS011;6914;53.552;9.908;2022-11-20T03:33:32;5.97;;;5.47;;
13683;SDS011;6914;53.552;9.908;2022-11-20T03:36:00;9.13;;;5.30;;
13683;SDS011;6914;53.552;9.908;2022-11-20T03:38:28;7.40;;;4.77;;
13683;SDS011;6914;53.552;9.908;2022-11-20T03:40:57;6.60;;;5.30;;
13683;SDS011;6914;53.552;9.908;2022-11-20T03:43:25;4.70;;;4.30;;
13683;SDS011;6914;53.552;9.908;2022-11-20T03:45:53;4.60;;;4.30;;
13683;SDS011;6914;53.552;9.908;2022-11-20T03:48:20;5.33;;;5.03;;
13683;SDS011;6914;53.552;9.908;2022-11-20T03:50:46;5.40;;;4.90;;
13683;SDS011;6914;53.552;9.908;2022-11-20T03:53:13;9.00;;;5.30;;
13683;SDS011;6914;53.552;9.908;2022-11-20T03:55:40;4.23;;;3.93;;
13683;SDS011;6914;53.552;9.908;2022-11-20T03:58:07;4.43;;;4.23;;
13683;SDS011;6914;53.552;9.908;2022-11-20T04:00:34;5.37;;;4.90;;
13683;SDS011;6914;53.552;9.908;2022-11-20T04:03:03;5.53;;;5.03;;
13683;SDS011;6914;53.552;9.908;2022-11-20T04:05:30;6.57;;;4.90;;
13683;SDS011;6914;53.552;9.908;2022-11-20T04:07:58;6.30;;;5.70;;
13683;SDS011;6914;53.552;9.908;2022-11-20T04:10:25;6.00;;;5.10;;
13683;SDS011;6914;53.552;9.908;2022-11-20T04:12:52;5.13;;;4.83;;
13683;SDS011;6914;53.552;9.908;2022-11-20T04:15:19;4.93;;;4.63;;
13683;SDS011;6914;53.552;9.908;2022-11-20T04:17:45;5.10;;;4.80;;
13683;SDS011;6914;53.552;9.908;2022-11-20T04:20:13;7.03;;;5.13;;
13683;SDS011;6914;53.552;9.908;2022-11-20T04:22:40;5.77;;;5.37;;
13683;SDS011;6914;53.552;9.908;2022-11-20T04:25:07;6.17;;;5.00;;
13683;SDS011;6914;53.552;9.908;2022-11-20T04:27:34;4.37;;;4.07;;
13683;SDS011;6914;53.552;9.908;2022-11-20T04:30:01;4.70;;;4.30;;
13683;SDS011;6914;53.552;9.908;2022-11-20T04:32:28;7.80;;;5.23;;
13683;SDS011;6914;53.552;9.908;2022-11-20T04:34:55;5.97;;;4.50;;
13683;SDS011;6914;53.552;9.908;2022-11-20T04:37:23;5.27;;;4.80;;
13683;SDS011;6914;53.552;9.908;2022-11-20T04:39:49;5.03;;;4.73;;
13683;SDS011;6914;53.552;9.908;2022-11-20T04:42:16;5.13;;;4.67;;
13683;SDS011;6914;53.552;9.908;2022-11-20T04:44:55;7.10;;;5.17;;
13683;SDS011;6914;53.552;9.908;2022-11-20T04:47:22;6.50;;;4.93;;
13683;SDS011;6914;53.552;9.908;2022-11-20T04:49:49;4.17;;;3.97;;
13683;SDS011;6914;53.552;9.908;2022-11-20T04:52:15;5.20;;;4.80;;
13683;SDS011;6914;53.552;9.908;2022-11-20T04:54:43;5.57;;;5.07;;
13683;SDS011;6914;53.552;9.908;2022-11-20T04:57:12;5.47;;;5.07;;
13683;SDS011;6914;53.552;9.908;2022-11-20T04:59:39;5.20;;;4.80;;
13683;SDS011;6914;53.552;9.908;2022-11-20T05:02:06;5.50;;;5.10;;
13683;SDS011;6914;53.552;9.908;2022-11-20T05:04:33;5.40;;;4.90;;
13683;SDS011;6914;53.552;9.908;2022-11-20T05:06:59;8.70;;;4.40;;
13683;SDS011;6914;53.552;9.908;2022-11-20T05:09:26;5.70;;;5.00;;
13683;SDS011;6914;53.552;9.908;2022-11-20T05:11:54;5.60;;;5.07;;
13683;SDS011;6914;53.552;9.908;2022-11-20T05:14:21;9.13;;;5.03;;
13683;SDS011;6914;53.552;9.908;2022-11-20T05:16:48;5.27;;;4.77;;
13683;SDS011;6914;53.552;9.908;2022-11-20T05:19:14;5.10;;;4.60;;
13683;SDS011;6914;53.552;9.908;2022-11-20T05:21:41;4.93;;;4.63;;
13683;SDS011;6914;53.552;9.908;2022-11-20T05:24:08;3.93;;;3.73;;
13683;SDS011;6914;53.552;9.908;2022-11-20T05:26:35;5.93;;;5.33;;
13683;SDS011;6914;53.552;9.908;2022-11-20T05:29:03;6.40;;;5.90;;
13683;SDS011;6914;53.552;9.908;2022-11-20T05:31:30;5.37;;;4.50;;
13683;SDS011;6914;53.552;9.908;2022-11-20T05:33:57;5.53;;;4.70;;
13683;SDS011;6914;53.552;9.908;2022-11-20T05:36:24;5.57;;;5.07;;
13683;SDS011;6914;53.552;9.908;2022-11-20T05:38:51;9.00;;;5.93;;
13683;SDS011;6914;53.552;9.908;2022-11-20T05:41:18;6.20;;;5.70;;
13683;SDS011;6914;53.552;9.908;2022-11-20T05:43:46;6.17;;;5.67;;
13683;SDS011;6914;53.552;9.908;2022-11-20T05:46:17;9.53;;;5.77;;
13683;SDS011;6914;53.552;9.908;2022-11-20T05:48:45;6.30;;;5.70;;
13683;SDS011;6914;53.552;9.908;2022-11-20T05:51:13;6.53;;;5.93;;
13683;SDS011;6914;53.552;9.908;2022-11-20T05:53:42;6.23;;;5.10;;
13683;SDS011;6914;53.552;9.908;2022-11-20T05:56:10;6.47;;;5.87;;
13683;SDS011;6914;53.552;9.908;2022-11-20T05:58:38;6.60;;;5.70;;
13683;SDS011;6914;53.552;9.908;2022-11-20T06:01:06;6.50;;;5.80;;
13683;SDS011;6914;53.552;9.908;2022-11-20T06:03:35;6.40;;;5.90;;
13683;SDS011;6914;53.552;9.908;2022-11-20T06:06:03;9.63;;;7.17;;
13683;SDS011;6914;53.552;9.908;2022-11-20T06:08:31;9.17;;;6.77;;
13683;SDS011;6914;53.552;9.908;2022-11-20T06:10:58;6.87;;;6.27;;
13683;SDS011;6914;53.552;9.908;2022-11-20T06:13:28;7.70;;;7.00;;
13683;SDS011;6914;53.552;9.908;2022-11-20T06:15:55;8.10;;;6.53;;
13683;SDS011;6914;53.552;9.908;2022-11-20T06:18:22;9.30;;;8.20;;
13683;SDS011;6914;53.552;9.908;2022-11-20T06:20:50;9.63;;;6.73;;
13683;SDS011;6914;53.552;9.908;2022-11-20T06:23:27;8.67;;;6.70;;
13683;SDS011;6914;53.552;9.908;2022-11-20T06:25:54;7.10;;;6.43;;
13683;SDS011;6914;53.552;9.908;2022-11-20T06:28:21;7.30;;;5.10;;
13683;SDS011;6914;53.552;9.908;2022-11-20T06:30:48;5.80;;;5.33;;
13683;SDS011;6914;53.552;9.908;2022-11-20T06:33:14;7.80;;;5.40;;
13683;SDS011;6914;53.552;9.908;2022-11-20T06:35:41;5.40;;;4.97;;
13683;SDS011;6914;53.552;9.908;2022-11-20T06:38:09;6.90;;;6.20;;
13683;SDS011;6914;53.552;9.908;2022-11-20T06:40:38;12.13;;;6.53;;
13683;SDS011;6914;53.552;9.908;2022-11-20T06:43:06;5.77;;;5.27;;
13683;SDS011;6914;53.552;9.908;2022-11-20T06:45:32;5.27;;;4.90;;
13683;SDS011;6914;53.552;9.908;2022-11-20T06:47:59;5.47;;;4.97;;
13683;SDS011;6914;53.552;9.908;2022-11-20T06:50:26;8.00;;;5.40;;
13683;SDS011;6914;53.552;9.908;2022-11-20T06:52:52;4.80;;;4.50;;
13683;SDS011;6914;53.552;9.908;2022-11-20T06:55:20;6.63;;;6.13;;
13683;SDS011;6914;53.552;9.908;2022-11-20T06:57:47;5.20;;;4.50;;
13683;SDS011;6914;53.552;9.908;2022-11-20T07:00:14;6.13;;;5.60;;
13683;SDS011;6914;53.552;9.908;2022-11-20T07:02:41;6.00;;;5.27;;
13683;SDS011;6914;53.552;9.908;2022-11-20T07:05:08;8.00;;;5.93;;
13683;SDS011;6914;53.552;9.908;2022-11-20T07:07:34;9.40;;;5.50;;
13683;SDS011;6914;53.552;9.908;2022-11-20T07:10:01;6.10;;;5.60;;
13683;SDS011;6914;53.552;9.908;2022-11-20T07:12:30;8.53;;;6.57;;
13683;SDS011;6914;53.552;9.908;2022-11-20T07:14:56;17.50;;;8.23;;
13683;SDS011;6914;53.552;9.908;2022-11-20T07:17:23;14.73;;;9.33;;
13683;SDS011;6914;53.552;9.908;2022-11-20T07:19:50;11.30;;;9.90;;
13683;SDS011;6914;53.552;9.908;2022-11-20T07:22:17;15.80;;;11.13;;
13683;SDS011;6914;53.552;9.908;2022-11-20T07:24:46;12.50;;;10.47;;
13683;SDS011;6914;53.552;9.908;2022-11-20T07:27:13;13.37;;;11.23;;
13683;SDS011;6914;53.552;9.908;2022-11-20T07:29:41;12.00;;;10.77;;
13683;SDS011;6914;53.552;9.908;2022-11-20T07:32:08;19.80;;;13.03;;
13683;SDS011;6914;53.552;9.908;2022-11-20T07:34:34;12.37;;;11.13;;
13683;SDS011;6914;53.552;9.908;2022-11-20T07:37:01;12.50;;;11.33;;
13683;SDS011;6914;53.552;9.908;2022-11-20T07:39:28;12.17;;;10.87;;
13683;SDS011;6914;53.552;9.908;2022-11-20T07:41:54;13.83;;;11.80;;
13683;SDS011;6914;53.552;9.908;2022-11-20T07:44:21;9.20;;;7.60;;
13683;SDS011;6914;53.552;9.908;2022-11-20T07:46:49;10.90;;;8.90;;
13683;SDS011;6914;53.552;9.908;2022-11-20T07:49:16;10.17;;;9.10;;
13683;SDS011;6914;53.552;9.908;2022-11-20T07:51:43;12.30;;;7.10;;
13683;SDS011;6914;53.552;9.908;2022-11-20T07:54:09;8.60;;;7.80;;
13683;SDS011;6914;53.552;9.908;2022-11-20T07:56:36;8.43;;;7.47;;
13683;SDS011;6914;53.552;9.908;2022-11-20T07:59:03;6.97;;;6.23;;
13683;SDS011;6914;53.552;9.908;2022-11-20T08:01:29;6.23;;;5.83;;
13683;SDS011;6914;53.552;9.908;2022-11-20T08:03:57;7.17;;;6.57;;
13683;SDS011;6914;53.552;9.908;2022-11-20T08:06:24;8.90;;;6.47;;
13683;SDS011;6914;53.552;9.908;2022-11-20T08:08:51;13.27;;;6.30;;
13683;SDS011;6914;53.552;9.908;2022-11-20T08:11:18;6.77;;;6.10;;
13683;SDS011;6914;53.552;9.908;2022-11-20T08:14:02;8.87;;;5.83;;
13683;SDS011;6914;53.552;9.908;2022-11-20T08:16:38;5.53;;;5.23;;
13683;SDS011;6914;53.552;9.908;2022-11-20T08:19:06;15.27;;;6.47;;
13683;SDS011;6914;53.552;9.908;2022-11-20T08:21:33;5.87;;;5.40;;
13683;SDS011;6914;53.552;9.908;2022-11-20T08:24:00;8.23;;;5.90;;
13683;SDS011;6914;53.552;9.908;2022-11-20T08:26:26;6.90;;;6.20;;
13683;SDS011;6914;53.552;9.908;2022-11-20T08:28:54;5.33;;;4.97;;
13683;SDS011;6914;53.552;9.908;2022-11-20T08:31:21;5.97;;;5.43;;
13683;SDS011;6914;53.552;9.908;2022-11-20T08:33:48;8.30;;;5.63;;
13683;SDS011;6914;53.552;9.908;2022-11-20T08:36:17;6.30;;;5.73;;
13683;SDS011;6914;53.552;9.908;2022-11-20T08:38:46;7.33;;;4.40;;
13683;SDS011;6914;53.552;9.908;2022-11-20T08:41:14;5.10;;;4.60;;
13683;SDS011;6914;53.552;9.908;2022-11-20T08:43:51;5.30;;;4.90;;
13683;SDS011;6914;53.552;9.908;2022-11-20T08:46:19;4.60;;;4.20;;
13683;SDS011;6914;53.552;9.908;2022-11-20T08:48:46;5.13;;;4.60;;
13683;SDS011;6914;53.552;9.908;2022-11-20T08:51:13;5.63;;;5.20;;
13683;SDS011;6914;53.552;9.908;2022-11-20T08:53:42;4.87;;;4.57;;
13683;SDS011;6914;53.552;9.908;2022-11-20T08:56:09;5.30;;;4.50;;
13683;SDS011;6914;53.552;9.908;2022-11-20T08:58:36;5.93;;;5.07;;
13683;SDS011;6914;53.552;9.908;2022-11-20T09:01:03;5.13;;;4.77;;
13683;SDS011;6914;53.552;9.908;2022-11-20T09:03:30;4.70;;;4.30;;
13683;SDS011;6914;53.552;9.908;2022-11-20T09:05:57;4.70;;;3.53;;
13683;SDS011;6914;53.552;9.908;2022-11-20T09:08:25;3.97;;;3.73;;
13683;SDS011;6914;53.552;9.908;2022-11-20T09:10:54;4.77;;;3.83;;
13683;SDS011;6914;53.552;9.908;2022-11-20T09:13:21;3.30;;;3.20;;
13683;SDS011;6914;53.552;9.908;2022-11-20T09:15:52;3.87;;;3.30;;
13683;SDS011;6914;53.552;9.908;2022-11-20T09:18:20;3.93;;;3.70;;
13683;SDS011;6914;53.552;9.908;2022-11-20T09:20:47;4.17;;;3.97;;
13683;SDS011;6914;53.552;9.908;2022-11-20T09:23:14;4.30;;;4.10;;
13683;SDS011;6914;53.552;9.908;2022-11-20T09:25:41;3.93;;;3.63;;
13683;SDS011;6914;53.552;9.908;2022-11-20T09:28:10;3.97;;;3.73;;
13683;SDS011;6914;53.552;9.908;2022-11-20T09:30:36;3.50;;;3.30;;
13683;SDS011;6914;53.552;9.908;2022-11-20T09:33:03;3.60;;;3.43;;
13683;SDS011;6914;53.552;9.908;2022-11-20T09:35:30;2.87;;;2.67;;
13683;SDS011;6914;53.552;9.908;2022-11-20T09:37:57;3.97;;;3.00;;
13683;SDS011;6914;53.552;9.908;2022-11-20T09:40:25;2.40;;;2.30;;
13683;SDS011;6914;53.552;9.908;2022-11-20T09:42:55;2.70;;;2.60;;
13683;SDS011;6914;53.552;9.908;2022-11-20T09:45:37;4.80;;;2.73;;
13683;SDS011;6914;53.552;9.908;2022-11-20T09:48:15;3.00;;;2.80;;
13683;SDS011;6914;53.552;9.908;2022-11-20T09:50:53;2.90;;;2.70;;
13683;SDS011;6914;53.552;9.908;2022-11-20T09:53:30;4.60;;;3.07;;
13683;SDS011;6914;53.552;9.908;2022-11-20T09:56:01;2.50;;;2.40;;
13683;SDS011;6914;53.552;9.908;2022-11-20T09:58:31;3.03;;;2.77;;
13683;SDS011;6914;53.552;9.908;2022-11-20T10:01:05;2.30;;;2.20;;
13683;SDS011;6914;53.552;9.908;2022-11-20T10:03:39;2.23;;;2.03;;
13683;SDS011;6914;53.552;9.908;2022-11-20T10:06:13;2.80;;;2.60;;
13683;SDS011;6914;53.552;9.908;2022-11-20T10:08:44;2.90;;;2.80;;
13683;SDS011;6914;53.552;9.908;2022-11-20T10:11:17;2.27;;;2.17;;
13683;SDS011;6914;53.552;9.908;2022-11-20T10:13:49;2.60;;;2.50;;
13683;SDS011;6914;53.552;9.908;2022-11-20T10:16:26;3.00;;;2.90;;
13683;SDS011;6914;53.552;9.908;2022-11-20T10:19:06;2.60;;;2.50;;
13683;SDS011;6914;53.552;9.908;2022-11-20T10:21:50;2.93;;;2.10;;
13683;SDS011;6914;53.552;9.908;2022-11-20T10:24:39;2.57;;;2.47;;
13683;SDS011;6914;53.552;9.908;2022-11-20T10:27:15;1.73;;;1.63;;
13683;SDS011;6914;53.552;9.908;2022-11-20T10:29:59;3.83;;;1.90;;
13683;SDS011;6914;53.552;9.908;2022-11-20T10:32:31;2.70;;;2.50;;
13683;SDS011;6914;53.552;9.908;2022-11-20T10:35:04;1.90;;;1.80;;
13683;SDS011;6914;53.552;9.908;2022-11-20T10:37:40;2.63;;;2.10;;
13683;SDS011;6914;53.552;9.908;2022-11-20T10:40:15;2.63;;;2.43;;
13683;SDS011;6914;53.552;9.908;2022-11-20T10:42:49;3.07;;;2.70;;
13683;SDS011;6914;53.552;9.908;2022-11-20T10:45:31;2.73;;;2.63;;
13683;SDS011;6914;53.552;9.908;2022-11-20T10:48:10;2.43;;;2.33;;
13683;SDS011;6914;53.552;9.908;2022-11-20T10:50:43;2.07;;;1.97;;
13683;SDS011;6914;53.552;9.908;2022-11-20T10:53:23;2.27;;;2.17;;
13683;SDS011;6914;53.552;9.908;2022-11-20T10:56:07;3.60;;;3.30;;
13683;SDS011;6914;53.552;9.908;2022-11-20T10:58:43;4.73;;;2.70;;
13683;SDS011;6914;53.552;9.908;2022-11-20T11:01:14;3.30;;;3.10;;
13683;SDS011;6914;53.552;9.908;2022-11-20T11:03:44;2.80;;;2.70;;
13683;SDS011;6914;53.552;9.908;2022-11-20T11:06:12;3.20;;;3.00;;
13683;SDS011;6914;53.552;9.908;2022-11-20T11:08:47;2.50;;;2.40;;
13683;SDS011;6914;53.552;9.908;2022-11-20T11:11:21;3.43;;;3.13;;
13683;SDS011;6914;53.552;9.908;2022-11-20T11:13:49;3.87;;;3.47;;
13683;SDS011;6914;53.552;9.908;2022-11-20T11:16:19;4.43;;;3.00;;
13683;SDS011;6914;53.552;9.908;2022-11-20T11:18:50;4.10;;;3.80;;
13683;SDS011;6914;53.552;9.908;2022-11-20T11:21:21;3.43;;;3.33;;
13683;SDS011;6914;53.552;9.908;2022-11-20T11:23:57;4.93;;;4.53;;
13683;SDS011;6914;53.552;9.908;2022-11-20T11:26:25;5.57;;;3.47;;
13683;SDS011;6914;53.552;9.908;2022-11-20T11:28:53;4.00;;;3.70;;
13683;SDS011;6914;53.552;9.908;2022-11-20T11:31:22;4.07;;;3.80;;
13683;SDS011;6914;53.552;9.908;2022-11-20T11:33:51;8.10;;;3.70;;
13683;SDS011;6914;53.552;9.908;2022-11-20T11:36:19;3.80;;;3.60;;
13683;SDS011;6914;53.552;9.908;2022-11-20T11:38:50;3.27;;;3.07;;
13683;SDS011;6914;53.552;9.908;2022-11-20T11:41:19;3.70;;;3.50;;
13683;SDS011;6914;53.552;9.908;2022-11-20T11:43:51;3.50;;;3.40;;
13683;SDS011;6914;53.552;9.908;2022-11-20T11:46:36;3.20;;;3.10;;
13683;SDS011;6914;53.552;9.908;2022-11-20T11:49:15;3.30;;;3.20;;
13683;SDS011;6914;53.552;9.908;2022-11-20T11:51:56;3.40;;;3.20;;
13683;SDS011;6914;53.552;9.908;2022-11-20T11:54:30;3.80;;;3.40;;
13683;SDS011;6914;53.552;9.908;2022-11-20T11:57:01;3.33;;;3.13;;
13683;SDS011;6914;53.552;9.908;2022-11-20T11:59:37;4.77;;;3.90;;
13683;SDS011;6914;53.552;9.908;2022-11-20T12:02:14;2.80;;;2.70;;
13683;SDS011;6914;53.552;9.908;2022-11-20T12:04:58;3.17;;;3.07;;
13683;SDS011;6914;53.552;9.908;2022-11-20T12:07:32;2.50;;;2.40;;
13683;SDS011;6914;53.552;9.908;2022-11-20T12:10:08;2.40;;;2.30;;
13683;SDS011;6914;53.552;9.908;2022-11-20T12:12:48;2.47;;;2.37;;
13683;SDS011;6914;53.552;9.908;2022-11-20T12:15:23;3.17;;;3.07;;
13683;SDS011;6914;53.552;9.908;2022-11-20T12:17:54;2.27;;;2.07;;
13683;SDS011;6914;53.552;9.908;2022-11-20T12:20:24;2.70;;;2.60;;
13683;SDS011;6914;53.552;9.908;2022-11-20T12:22:54;2.17;;;2.07;;
13683;SDS011;6914;53.552;9.908;2022-11-20T12:25:27;2.50;;;2.30;;
13683;SDS011;6914;53.552;9.908;2022-11-20T12:28:02;2.87;;;2.77;;
13683;SDS011;6914;53.552;9.908;2022-11-20T12:30:48;10.17;;;2.90;;
13683;SDS011;6914;53.552;9.908;2022-11-20T12:33:33;2.87;;;2.70;;
13683;SDS011;6914;53.552;9.908;2022-11-20T12:36:19;3.50;;;3.20;;
13683;SDS011;6914;53.552;9.908;2022-11-20T12:38:57;2.80;;;2.70;;
13683;SDS011;6914;53.552;9.908;2022-11-20T12:41:43;3.20;;;2.90;;
13683;SDS011;6914;53.552;9.908;2022-11-20T12:44:39;4.57;;;4.17;;
13683;SDS011;6914;53.552;9.908;2022-11-20T12:47:47;3.00;;;2.90;;
13683;SDS011;6914;53.552;9.908;2022-11-20T12:50:23;3.10;;;3.00;;
13683;SDS011;6914;53.552;9.908;2022-11-20T12:53:01;4.50;;;4.20;;
13683;SDS011;6914;53.552;9.908;2022-11-20T12:55:42;2.97;;;2.80;;
13683;SDS011;6914;53.552;9.908;2022-11-20T12:58:17;7.07;;;3.37;;
13683;SDS011;6914;53.552;9.908;2022-11-20T13:00:54;3.77;;;3.20;;
13683;SDS011;6914;53.552;9.908;2022-11-20T13:03:28;2.60;;;2.50;;
13683;SDS011;6914;53.552;9.908;2022-11-20T13:06:05;3.20;;;3.10;;
13683;SDS011;6914;53.552;9.908;2022-11-20T13:08:39;3.80;;;3.50;;
13683;SDS011;6914;53.552;9.908;2022-11-20T13:11:12;4.80;;;3.33;;
13683;SDS011;6914;53.552;9.908;2022-11-20T13:13:47;4.27;;;4.00;;
13683;SDS011;6914;53.552;9.908;2022-11-20T13:16:33;3.20;;;3.00;;
13683;SDS011;6914;53.552;9.908;2022-11-20T13:19:04;3.40;;;3.20;;
13683;SDS011;6914;53.552;9.908;2022-11-20T13:21:38;3.97;;;3.57;;
13683;SDS011;6914;53.552;9.908;2022-11-20T13:24:20;4.03;;;3.83;;
13683;SDS011;6914;53.552;9.908;2022-11-20T13:26:59;4.40;;;4.10;;
13683;SDS011;6914;53.552;9.908;2022-11-20T13:29:27;5.03;;;4.67;;
13683;SDS011;6914;53.552;9.908;2022-11-20T13:32:01;3.70;;;3.50;;
13683;SDS011;6914;53.552;9.908;2022-11-20T13:34:30;3.20;;;3.00;;
13683;SDS011;6914;53.552;9.908;2022-11-20T13:36:58;3.23;;;3.03;;
13683;SDS011;6914;53.552;9.908;2022-11-20T13:39:30;3.63;;;3.43;;
13683;SDS011;6914;53.552;9.908;2022-11-20T13:41:58;3.80;;;3.60;;
13683;SDS011;6914;53.552;9.908;2022-11-20T13:44:27;3.67;;;3.17;;
13683;SDS011;6914;53.552;9.908;2022-11-20T13:47:00;2.70;;;2.60;;
13683;SDS011;6914;53.552;9.908;2022-11-20T13:49:29;2.67;;;2.57;;
13683;SDS011;6914;53.552;9.908;2022-11-20T13:52:01;4.30;;;2.40;;
13683;SDS011;6914;53.552;9.908;2022-11-20T13:54:54;6.27;;;2.30;;
13683;SDS011;6914;53.552;9.908;2022-11-20T14:00:27;3.00;;;2.90;;
13683;SDS011;6914;53.552;9.908;2022-11-20T14:02:59;2.90;;;2.57;;
13683;SDS011;6914;53.552;9.908;2022-11-20T14:05:34;3.73;;;3.00;;
13683;SDS011;6914;53.552;9.908;2022-11-20T14:08:03;3.43;;;3.17;;
13683;SDS011;6914;53.552;9.908;2022-11-20T14:10:32;3.33;;;3.20;;
13683;SDS011;6914;53.552;9.908;2022-11-20T14:13:09;2.90;;;2.80;;
13683;SDS011;6914;53.552;9.908;2022-11-20T14:15:37;3.27;;;3.17;;
13683;SDS011;6914;53.552;9.908;2022-11-20T14:18:11;3.10;;;2.90;;
13683;SDS011;6914;53.552;9.908;2022-11-20T14:20:39;3.20;;;3.00;;
13683;SDS011;6914;53.552;9.908;2022-11-20T14:23:08;3.03;;;2.87;;
13683;SDS011;6914;53.552;9.908;2022-11-20T14:25:37;3.37;;;3.17;;
13683;SDS011;6914;53.552;9.908;2022-11-20T14:28:10;3.27;;;3.10;;
13683;SDS011;6914;53.552;9.908;2022-11-20T14:30:45;4.40;;;3.60;;
13683;SDS011;6914;53.552;9.908;2022-11-20T14:33:13;4.47;;;3.50;;
13683;SDS011;6914;53.552;9.908;2022-11-20T14:35:43;8.27;;;7.67;;
13683;SDS011;6914;53.552;9.908;2022-11-20T14:38:12;6.93;;;6.30;;
13683;SDS011;6914;53.552;9.908;2022-11-20T14:40:43;6.83;;;5.87;;
13683;SDS011;6914;53.552;9.908;2022-11-20T14:43:18;4.03;;;3.83;;
13683;SDS011;6914;53.552;9.908;2022-11-20T14:45:48;4.50;;;4.00;;
13683;SDS011;6914;53.552;9.908;2022-11-20T14:48:22;5.17;;;4.87;;
13683;SDS011;6914;53.552;9.908;2022-11-20T14:50:52;3.37;;;3.27;;
13683;SDS011;6914;53.552;9.908;2022-11-20T14:53:22;3.10;;;2.90;;
13683;SDS011;6914;53.552;9.908;2022-11-20T14:55:55;4.80;;;3.63;;
13683;SDS011;6914;53.552;9.908;2022-11-20T14:58:24;3.10;;;2.97;;
13683;SDS011;6914;53.552;9.908;2022-11-20T15:00:55;6.00;;;4.00;;
13683;SDS011;6914;53.552;9.908;2022-11-20T15:03:30;3.20;;;3.00;;
13683;SDS011;6914;53.552;9.908;2022-11-20T15:05:57;3.10;;;3.00;;
13683;SDS011;6914;53.552;9.908;2022-11-20T15:08:24;3.00;;;2.90;;
13683;SDS011;6914;53.552;9.908;2022-11-20T15:10:51;6.77;;;6.13;;
13683;SDS011;6914;53.552;9.908;2022-11-20T15:13:23;6.07;;;5.43;;
13683;SDS011;6914;53.552;9.908;2022-11-20T15:15:52;3.07;;;2.87;;
13683;SDS011;6914;53.552;9.908;2022-11-20T15:18:22;3.23;;;3.03;;
13683;SDS011;6914;53.552;9.908;2022-11-20T15:20:50;3.97;;;3.67;;
13683;SDS011;6914;53.552;9.908;2022-11-20T15:23:18;3.80;;;3.50;;